sensor_id;sensor_type;location;lat;lon;timestamp;P1;durP1;ratioP1;P2;durP2;ratioP2
46284;SDS011;32018;59.182;18.148;2023-09-30T00:02:06;6.53;;;5.32;;
46284;SDS011;32018;59.182;18.148;2023-09-30T00:04:31;5.60;;;5.20;;
46284;SDS011;32018;59.182;18.148;2023-09-30T00:06:56;5.47;;;4.73;;
46284;SDS011;32018;59.182;18.148;2023-09-30T00:09:22;4.70;;;4.30;;
46284;SDS011;32018;59.182;18.148;2023-09-30T00:11:47;5.17;;;4.13;;
46284;SDS011;32018;59.182;18.148;2023-09-30T00:14:12;3.90;;;3.60;;
46284;SDS011;32018;59.182;18.148;2023-09-30T00:16:37;3.75;;;3.45;;
46284;SDS011;32018;59.182;18.148;2023-09-30T00:19:03;3.70;;;3.40;;
46284;SDS011;32018;59.182;18.148;2023-09-30T00:21:29;4.40;;;4.00;;
46284;SDS011;32018;59.182;18.148;2023-09-30T00:23:54;4.78;;;4.40;;
46284;SDS011;32018;59.182;18.148;2023-09-30T00:26:19;3.50;;;3.20;;
46284;SDS011;32018;59.182;18.148;2023-09-30T00:28:45;3.88;;;3.58;;
46284;SDS011;32018;59.182;18.148;2023-09-30T00:31:11;4.80;;;3.60;;
46284;SDS011;32018;59.182;18.148;2023-09-30T00:33:36;4.53;;;4.13;;
46284;SDS011;32018;59.182;18.148;2023-09-30T00:36:08;3.83;;;3.53;;
46284;SDS011;32018;59.182;18.148;2023-09-30T00:38:33;3.35;;;3.15;;
46284;SDS011;32018;59.182;18.148;2023-09-30T00:40:59;4.93;;;3.85;;
46284;SDS011;32018;59.182;18.148;2023-09-30T00:43:26;3.78;;;3.47;;
46284;SDS011;32018;59.182;18.148;2023-09-30T00:45:52;4.10;;;3.60;;
46284;SDS011;32018;59.182;18.148;2023-09-30T00:48:20;4.35;;;3.67;;
46284;SDS011;32018;59.182;18.148;2023-09-30T00:50:45;5.03;;;3.40;;
46284;SDS011;32018;59.182;18.148;2023-09-30T00:53:10;3.85;;;3.55;;
46284;SDS011;32018;59.182;18.148;2023-09-30T00:55:36;3.65;;;3.35;;
46284;SDS011;32018;59.182;18.148;2023-09-30T00:58:02;3.63;;;3.33;;
46284;SDS011;32018;59.182;18.148;2023-09-30T01:00:27;3.22;;;2.92;;
46284;SDS011;32018;59.182;18.148;2023-09-30T01:02:53;3.17;;;2.88;;
46284;SDS011;32018;59.182;18.148;2023-09-30T01:05:18;3.17;;;2.80;;
46284;SDS011;32018;59.182;18.148;2023-09-30T01:07:44;2.50;;;2.30;;
46284;SDS011;32018;59.182;18.148;2023-09-30T01:10:09;2.30;;;2.10;;
46284;SDS011;32018;59.182;18.148;2023-09-30T01:12:34;2.78;;;2.22;;
46284;SDS011;32018;59.182;18.148;2023-09-30T01:14:59;4.07;;;2.47;;
46284;SDS011;32018;59.182;18.148;2023-09-30T01:17:25;2.72;;;1.90;;
46284;SDS011;32018;59.182;18.148;2023-09-30T01:19:50;3.97;;;2.05;;
46284;SDS011;32018;59.182;18.148;2023-09-30T01:22:17;3.28;;;2.10;;
46284;SDS011;32018;59.182;18.148;2023-09-30T01:24:42;3.35;;;1.77;;
46284;SDS011;32018;59.182;18.148;2023-09-30T01:27:10;2.30;;;1.75;;
46284;SDS011;32018;59.182;18.148;2023-09-30T01:29:35;2.17;;;1.83;;
46284;SDS011;32018;59.182;18.148;2023-09-30T01:32:03;1.40;;;1.30;;
46284;SDS011;32018;59.182;18.148;2023-09-30T01:34:32;1.50;;;1.40;;
46284;SDS011;32018;59.182;18.148;2023-09-30T01:36:58;1.98;;;1.35;;
46284;SDS011;32018;59.182;18.148;2023-09-30T01:39:23;1.43;;;1.20;;
46284;SDS011;32018;59.182;18.148;2023-09-30T01:41:48;1.60;;;1.50;;
46284;SDS011;32018;59.182;18.148;2023-09-30T01:44:14;1.67;;;1.40;;
46284;SDS011;32018;59.182;18.148;2023-09-30T01:46:39;1.70;;;1.25;;
46284;SDS011;32018;59.182;18.148;2023-09-30T01:49:04;1.30;;;1.20;;
46284;SDS011;32018;59.182;18.148;2023-09-30T01:51:29;1.40;;;0.90;;
46284;SDS011;32018;59.182;18.148;2023-09-30T01:53:55;1.05;;;0.95;;
46284;SDS011;32018;59.182;18.148;2023-09-30T01:56:20;2.28;;;1.33;;
46284;SDS011;32018;59.182;18.148;2023-09-30T01:58:46;1.65;;;1.25;;
46284;SDS011;32018;59.182;18.148;2023-09-30T02:01:11;1.53;;;1.10;;
46284;SDS011;32018;59.182;18.148;2023-09-30T02:03:36;1.37;;;1.27;;
46284;SDS011;32018;59.182;18.148;2023-09-30T02:06:02;1.95;;;1.20;;
46284;SDS011;32018;59.182;18.148;2023-09-30T02:08:28;1.65;;;1.40;;
46284;SDS011;32018;59.182;18.148;2023-09-30T02:10:53;2.80;;;1.60;;
46284;SDS011;32018;59.182;18.148;2023-09-30T02:13:19;3.43;;;1.60;;
46284;SDS011;32018;59.182;18.148;2023-09-30T02:15:45;4.10;;;1.90;;
46284;SDS011;32018;59.182;18.148;2023-09-30T02:18:10;1.90;;;1.25;;
46284;SDS011;32018;59.182;18.148;2023-09-30T02:20:36;2.30;;;1.52;;
46284;SDS011;32018;59.182;18.148;2023-09-30T02:23:04;2.70;;;1.40;;
46284;SDS011;32018;59.182;18.148;2023-09-30T02:25:31;2.33;;;1.75;;
46284;SDS011;32018;59.182;18.148;2023-09-30T02:27:57;2.53;;;1.50;;
46284;SDS011;32018;59.182;18.148;2023-09-30T02:30:22;1.73;;;1.30;;
46284;SDS011;32018;59.182;18.148;2023-09-30T02:32:47;1.55;;;1.20;;
46284;SDS011;32018;59.182;18.148;2023-09-30T02:35:13;2.43;;;1.73;;
46284;SDS011;32018;59.182;18.148;2023-09-30T02:37:40;2.30;;;1.67;;
46284;SDS011;32018;59.182;18.148;2023-09-30T02:40:05;2.22;;;1.30;;
46284;SDS011;32018;59.182;18.148;2023-09-30T02:42:34;2.33;;;1.20;;
46284;SDS011;32018;59.182;18.148;2023-09-30T02:45:00;2.97;;;1.20;;
46284;SDS011;32018;59.182;18.148;2023-09-30T02:47:26;2.13;;;1.40;;
46284;SDS011;32018;59.182;18.148;2023-09-30T02:49:51;2.60;;;1.58;;
46284;SDS011;32018;59.182;18.148;2023-09-30T02:52:16;2.00;;;1.17;;
46284;SDS011;32018;59.182;18.148;2023-09-30T02:54:41;2.22;;;1.30;;
46284;SDS011;32018;59.182;18.148;2023-09-30T02:57:07;5.47;;;1.53;;
46284;SDS011;32018;59.182;18.148;2023-09-30T02:59:34;3.53;;;1.50;;
46284;SDS011;32018;59.182;18.148;2023-09-30T03:02:01;2.65;;;1.33;;
46284;SDS011;32018;59.182;18.148;2023-09-30T03:04:26;2.37;;;1.90;;
46284;SDS011;32018;59.182;18.148;2023-09-30T03:06:53;2.15;;;1.27;;
46284;SDS011;32018;59.182;18.148;2023-09-30T03:09:21;3.20;;;1.40;;
46284;SDS011;32018;59.182;18.148;2023-09-30T03:11:46;1.42;;;1.15;;
46284;SDS011;32018;59.182;18.148;2023-09-30T03:14:11;2.23;;;1.57;;
46284;SDS011;32018;59.182;18.148;2023-09-30T03:16:38;2.63;;;1.30;;
46284;SDS011;32018;59.182;18.148;2023-09-30T03:19:05;2.55;;;1.30;;
46284;SDS011;32018;59.182;18.148;2023-09-30T03:21:30;3.17;;;1.75;;
46284;SDS011;32018;59.182;18.148;2023-09-30T03:23:56;2.55;;;1.45;;
46284;SDS011;32018;59.182;18.148;2023-09-30T03:26:21;1.83;;;1.50;;
46284;SDS011;32018;59.182;18.148;2023-09-30T03:28:47;2.40;;;1.42;;
46284;SDS011;32018;59.182;18.148;2023-09-30T03:31:12;3.97;;;1.77;;
46284;SDS011;32018;59.182;18.148;2023-09-30T03:33:37;2.73;;;1.57;;
46284;SDS011;32018;59.182;18.148;2023-09-30T03:36:02;4.22;;;2.17;;
46284;SDS011;32018;59.182;18.148;2023-09-30T03:38:28;2.83;;;1.65;;
46284;SDS011;32018;59.182;18.148;2023-09-30T03:40:54;1.95;;;1.50;;
46284;SDS011;32018;59.182;18.148;2023-09-30T03:43:20;3.80;;;1.83;;
46284;SDS011;32018;59.182;18.148;2023-09-30T03:45:46;4.45;;;2.03;;
46284;SDS011;32018;59.182;18.148;2023-09-30T03:48:11;4.47;;;1.98;;
46284;SDS011;32018;59.182;18.148;2023-09-30T03:50:36;2.83;;;2.10;;
46284;SDS011;32018;59.182;18.148;2023-09-30T03:53:02;2.28;;;1.60;;
46284;SDS011;32018;59.182;18.148;2023-09-30T03:55:29;3.08;;;1.77;;
46284;SDS011;32018;59.182;18.148;2023-09-30T03:57:56;2.75;;;1.88;;
46284;SDS011;32018;59.182;18.148;2023-09-30T04:00:22;2.37;;;1.47;;
46284;SDS011;32018;59.182;18.148;2023-09-30T04:02:47;3.63;;;2.30;;
46284;SDS011;32018;59.182;18.148;2023-09-30T04:05:14;4.72;;;2.13;;
46284;SDS011;32018;59.182;18.148;2023-09-30T04:07:40;7.07;;;2.00;;
46284;SDS011;32018;59.182;18.148;2023-09-30T04:10:07;3.03;;;1.80;;
46284;SDS011;32018;59.182;18.148;2023-09-30T04:12:33;4.65;;;2.67;;
46284;SDS011;32018;59.182;18.148;2023-09-30T04:14:58;2.63;;;1.93;;
46284;SDS011;32018;59.182;18.148;2023-09-30T04:17:23;3.47;;;2.35;;
46284;SDS011;32018;59.182;18.148;2023-09-30T04:19:48;7.50;;;2.75;;
46284;SDS011;32018;59.182;18.148;2023-09-30T04:22:16;4.53;;;1.85;;
46284;SDS011;32018;59.182;18.148;2023-09-30T04:24:42;5.32;;;2.45;;
46284;SDS011;32018;59.182;18.148;2023-09-30T04:27:07;2.22;;;1.60;;
46284;SDS011;32018;59.182;18.148;2023-09-30T04:29:32;3.30;;;1.90;;
46284;SDS011;32018;59.182;18.148;2023-09-30T04:31:58;3.25;;;1.77;;
46284;SDS011;32018;59.182;18.148;2023-09-30T04:34:23;9.57;;;2.92;;
46284;SDS011;32018;59.182;18.148;2023-09-30T04:36:49;5.43;;;2.65;;
46284;SDS011;32018;59.182;18.148;2023-09-30T04:39:14;4.87;;;2.83;;
46284;SDS011;32018;59.182;18.148;2023-09-30T04:41:40;8.80;;;2.40;;
46284;SDS011;32018;59.182;18.148;2023-09-30T04:44:08;5.93;;;2.60;;
46284;SDS011;32018;59.182;18.148;2023-09-30T04:46:36;5.10;;;2.50;;
46284;SDS011;32018;59.182;18.148;2023-09-30T04:49:07;5.65;;;2.70;;
46284;SDS011;32018;59.182;18.148;2023-09-30T04:51:32;4.07;;;2.63;;
46284;SDS011;32018;59.182;18.148;2023-09-30T04:53:58;5.00;;;2.42;;
46284;SDS011;32018;59.182;18.148;2023-09-30T04:56:24;5.13;;;2.63;;
46284;SDS011;32018;59.182;18.148;2023-09-30T04:58:50;6.40;;;3.20;;
46284;SDS011;32018;59.182;18.148;2023-09-30T05:01:15;6.57;;;3.50;;
46284;SDS011;32018;59.182;18.148;2023-09-30T05:03:40;5.73;;;3.57;;
46284;SDS011;32018;59.182;18.148;2023-09-30T05:06:05;4.53;;;2.55;;
46284;SDS011;32018;59.182;18.148;2023-09-30T05:08:32;6.10;;;2.58;;
46284;SDS011;32018;59.182;18.148;2023-09-30T05:10:58;9.73;;;3.50;;
46284;SDS011;32018;59.182;18.148;2023-09-30T05:13:23;4.93;;;2.80;;
46284;SDS011;32018;59.182;18.148;2023-09-30T05:15:49;5.53;;;2.50;;
46284;SDS011;32018;59.182;18.148;2023-09-30T05:18:14;4.95;;;2.67;;
46284;SDS011;32018;59.182;18.148;2023-09-30T05:20:39;5.30;;;3.33;;
46284;SDS011;32018;59.182;18.148;2023-09-30T05:23:06;3.78;;;2.10;;
46284;SDS011;32018;59.182;18.148;2023-09-30T05:25:32;5.57;;;2.40;;
46284;SDS011;32018;59.182;18.148;2023-09-30T05:27:57;4.55;;;2.15;;
46284;SDS011;32018;59.182;18.148;2023-09-30T05:30:22;3.17;;;1.90;;
46284;SDS011;32018;59.182;18.148;2023-09-30T05:32:47;6.60;;;2.83;;
46284;SDS011;32018;59.182;18.148;2023-09-30T05:35:13;6.15;;;2.95;;
46284;SDS011;32018;59.182;18.148;2023-09-30T05:37:41;5.30;;;2.50;;
46284;SDS011;32018;59.182;18.148;2023-09-30T05:40:07;5.50;;;2.72;;
46284;SDS011;32018;59.182;18.148;2023-09-30T05:42:41;6.05;;;3.15;;
46284;SDS011;32018;59.182;18.148;2023-09-30T05:45:08;5.25;;;2.60;;
46284;SDS011;32018;59.182;18.148;2023-09-30T05:47:34;6.10;;;2.88;;
46284;SDS011;32018;59.182;18.148;2023-09-30T05:49:59;7.32;;;3.10;;
46284;SDS011;32018;59.182;18.148;2023-09-30T05:52:25;4.73;;;2.13;;
46284;SDS011;32018;59.182;18.148;2023-09-30T05:54:50;6.87;;;2.77;;
46284;SDS011;32018;59.182;18.148;2023-09-30T05:57:15;5.57;;;3.80;;
46284;SDS011;32018;59.182;18.148;2023-09-30T05:59:40;3.83;;;2.10;;
46284;SDS011;32018;59.182;18.148;2023-09-30T06:02:05;7.93;;;2.93;;
46284;SDS011;32018;59.182;18.148;2023-09-30T06:04:31;6.57;;;3.08;;
46284;SDS011;32018;59.182;18.148;2023-09-30T06:06:58;3.55;;;1.60;;
46284;SDS011;32018;59.182;18.148;2023-09-30T06:09:23;4.55;;;2.70;;
46284;SDS011;32018;59.182;18.148;2023-09-30T06:11:50;3.35;;;2.10;;
46284;SDS011;32018;59.182;18.148;2023-09-30T06:14:15;5.70;;;3.17;;
46284;SDS011;32018;59.182;18.148;2023-09-30T06:16:41;3.70;;;2.00;;
46284;SDS011;32018;59.182;18.148;2023-09-30T06:19:06;5.53;;;2.25;;
46284;SDS011;32018;59.182;18.148;2023-09-30T06:21:31;7.22;;;2.88;;
46284;SDS011;32018;59.182;18.148;2023-09-30T06:23:59;5.85;;;2.40;;
46284;SDS011;32018;59.182;18.148;2023-09-30T06:26:25;2.80;;;1.70;;
46284;SDS011;32018;59.182;18.148;2023-09-30T06:28:51;4.00;;;2.03;;
46284;SDS011;32018;59.182;18.148;2023-09-30T06:31:18;5.25;;;2.33;;
46284;SDS011;32018;59.182;18.148;2023-09-30T06:33:44;6.57;;;2.63;;
46284;SDS011;32018;59.182;18.148;2023-09-30T06:36:09;5.25;;;2.47;;
46284;SDS011;32018;59.182;18.148;2023-09-30T06:38:35;3.70;;;1.73;;
46284;SDS011;32018;59.182;18.148;2023-09-30T06:41:02;5.13;;;2.10;;
46284;SDS011;32018;59.182;18.148;2023-09-30T06:43:27;10.30;;;2.97;;
46284;SDS011;32018;59.182;18.148;2023-09-30T06:45:53;7.93;;;2.47;;
46284;SDS011;32018;59.182;18.148;2023-09-30T06:48:19;6.07;;;2.53;;
46284;SDS011;32018;59.182;18.148;2023-09-30T06:50:45;3.70;;;1.83;;
46284;SDS011;32018;59.182;18.148;2023-09-30T06:53:16;3.22;;;1.55;;
46284;SDS011;32018;59.182;18.148;2023-09-30T06:55:42;5.45;;;2.70;;
46284;SDS011;32018;59.182;18.148;2023-09-30T06:58:10;6.85;;;2.90;;
46284;SDS011;32018;59.182;18.148;2023-09-30T07:00:36;11.43;;;2.78;;
46284;SDS011;32018;59.182;18.148;2023-09-30T07:03:02;3.42;;;1.52;;
46284;SDS011;32018;59.182;18.148;2023-09-30T07:05:27;4.05;;;1.83;;
46284;SDS011;32018;59.182;18.148;2023-09-30T07:07:53;6.70;;;2.20;;
46284;SDS011;32018;59.182;18.148;2023-09-30T07:10:19;5.47;;;1.95;;
46284;SDS011;32018;59.182;18.148;2023-09-30T07:12:44;4.93;;;1.80;;
46284;SDS011;32018;59.182;18.148;2023-09-30T07:15:09;5.27;;;2.33;;
46284;SDS011;32018;59.182;18.148;2023-09-30T07:17:34;5.50;;;1.90;;
46284;SDS011;32018;59.182;18.148;2023-09-30T07:20:00;7.57;;;2.40;;
46284;SDS011;32018;59.182;18.148;2023-09-30T07:22:25;5.00;;;2.13;;
46284;SDS011;32018;59.182;18.148;2023-09-30T07:24:50;8.43;;;2.83;;
46284;SDS011;32018;59.182;18.148;2023-09-30T07:27:16;7.22;;;2.53;;
46284;SDS011;32018;59.182;18.148;2023-09-30T07:29:41;4.70;;;2.00;;
46284;SDS011;32018;59.182;18.148;2023-09-30T07:32:07;7.47;;;2.10;;
46284;SDS011;32018;59.182;18.148;2023-09-30T07:34:32;9.70;;;2.40;;
46284;SDS011;32018;59.182;18.148;2023-09-30T07:36:57;11.88;;;2.22;;
46284;SDS011;32018;59.182;18.148;2023-09-30T07:39:23;4.75;;;2.22;;
46284;SDS011;32018;59.182;18.148;2023-09-30T07:41:48;7.60;;;2.83;;
46284;SDS011;32018;59.182;18.148;2023-09-30T07:44:13;4.27;;;1.50;;
46284;SDS011;32018;59.182;18.148;2023-09-30T07:46:38;6.50;;;2.10;;
46284;SDS011;32018;59.182;18.148;2023-09-30T07:49:04;7.13;;;2.60;;
46284;SDS011;32018;59.182;18.148;2023-09-30T07:51:29;6.10;;;2.30;;
46284;SDS011;32018;59.182;18.148;2023-09-30T07:53:55;5.83;;;2.40;;
46284;SDS011;32018;59.182;18.148;2023-09-30T07:56:20;10.00;;;2.47;;
46284;SDS011;32018;59.182;18.148;2023-09-30T07:58:47;4.75;;;1.80;;
46284;SDS011;32018;59.182;18.148;2023-09-30T08:01:12;7.47;;;2.03;;
46284;SDS011;32018;59.182;18.148;2023-09-30T08:03:37;6.70;;;2.30;;
46284;SDS011;32018;59.182;18.148;2023-09-30T08:06:03;9.00;;;2.97;;
46284;SDS011;32018;59.182;18.148;2023-09-30T08:08:28;4.97;;;2.28;;
46284;SDS011;32018;59.182;18.148;2023-09-30T08:10:54;6.65;;;2.08;;
46284;SDS011;32018;59.182;18.148;2023-09-30T08:13:22;9.82;;;3.60;;
46284;SDS011;32018;59.182;18.148;2023-09-30T08:15:50;4.15;;;1.98;;
46284;SDS011;32018;59.182;18.148;2023-09-30T08:18:16;8.35;;;2.03;;
46284;SDS011;32018;59.182;18.148;2023-09-30T08:20:41;6.72;;;2.53;;
46284;SDS011;32018;59.182;18.148;2023-09-30T08:23:07;11.60;;;2.93;;
46284;SDS011;32018;59.182;18.148;2023-09-30T08:25:32;7.63;;;2.80;;
46284;SDS011;32018;59.182;18.148;2023-09-30T08:27:57;5.57;;;2.27;;
46284;SDS011;32018;59.182;18.148;2023-09-30T08:30:25;8.30;;;2.95;;
46284;SDS011;32018;59.182;18.148;2023-09-30T08:32:51;7.38;;;2.65;;
46284;SDS011;32018;59.182;18.148;2023-09-30T08:35:16;7.05;;;2.08;;
46284;SDS011;32018;59.182;18.148;2023-09-30T08:37:41;8.63;;;2.67;;
46284;SDS011;32018;59.182;18.148;2023-09-30T08:40:06;7.83;;;2.37;;
46284;SDS011;32018;59.182;18.148;2023-09-30T08:42:34;10.85;;;2.78;;
46284;SDS011;32018;59.182;18.148;2023-09-30T08:45:00;5.95;;;2.17;;
46284;SDS011;32018;59.182;18.148;2023-09-30T08:47:28;5.53;;;1.80;;
46284;SDS011;32018;59.182;18.148;2023-09-30T08:49:56;4.68;;;1.75;;
46284;SDS011;32018;59.182;18.148;2023-09-30T08:52:30;8.60;;;2.40;;
46284;SDS011;32018;59.182;18.148;2023-09-30T08:54:56;4.88;;;1.75;;
46284;SDS011;32018;59.182;18.148;2023-09-30T08:57:21;4.82;;;1.88;;
46284;SDS011;32018;59.182;18.148;2023-09-30T08:59:47;9.18;;;2.42;;
46284;SDS011;32018;59.182;18.148;2023-09-30T09:02:13;6.55;;;2.00;;
46284;SDS011;32018;59.182;18.148;2023-09-30T09:04:38;3.70;;;1.80;;
46284;SDS011;32018;59.182;18.148;2023-09-30T09:07:04;8.60;;;3.53;;
46284;SDS011;32018;59.182;18.148;2023-09-30T09:09:29;9.95;;;2.80;;
46284;SDS011;32018;59.182;18.148;2023-09-30T09:11:54;6.17;;;2.00;;
46284;SDS011;32018;59.182;18.148;2023-09-30T09:14:39;6.43;;;2.33;;
46284;SDS011;32018;59.182;18.148;2023-09-30T09:17:06;9.45;;;2.35;;
46284;SDS011;32018;59.182;18.148;2023-09-30T09:19:31;6.28;;;2.75;;
46284;SDS011;32018;59.182;18.148;2023-09-30T09:21:57;5.55;;;2.00;;
46284;SDS011;32018;59.182;18.148;2023-09-30T09:24:30;4.13;;;2.13;;
46284;SDS011;32018;59.182;18.148;2023-09-30T09:29:31;5.82;;;1.55;;
46284;SDS011;32018;59.182;18.148;2023-09-30T09:32:06;5.47;;;2.00;;
46284;SDS011;32018;59.182;18.148;2023-09-30T09:34:32;7.35;;;2.17;;
46284;SDS011;32018;59.182;18.148;2023-09-30T09:36:57;7.97;;;2.08;;
46284;SDS011;32018;59.182;18.148;2023-09-30T09:39:29;5.00;;;1.87;;
46284;SDS011;32018;59.182;18.148;2023-09-30T09:41:57;6.68;;;2.45;;
46284;SDS011;32018;59.182;18.148;2023-09-30T09:44:23;5.93;;;2.20;;
46284;SDS011;32018;59.182;18.148;2023-09-30T09:46:50;7.75;;;1.95;;
46284;SDS011;32018;59.182;18.148;2023-09-30T09:49:16;5.95;;;1.88;;
46284;SDS011;32018;59.182;18.148;2023-09-30T09:51:42;5.18;;;1.50;;
46284;SDS011;32018;59.182;18.148;2023-09-30T09:54:09;9.10;;;2.03;;
46284;SDS011;32018;59.182;18.148;2023-09-30T09:56:34;5.13;;;1.70;;
46284;SDS011;32018;59.182;18.148;2023-09-30T09:59:00;5.17;;;2.07;;
46284;SDS011;32018;59.182;18.148;2023-09-30T10:01:26;5.57;;;1.98;;
46284;SDS011;32018;59.182;18.148;2023-09-30T10:03:52;5.72;;;1.88;;
46284;SDS011;32018;59.182;18.148;2023-09-30T10:06:18;4.80;;;1.80;;
46284;SDS011;32018;59.182;18.148;2023-09-30T10:08:45;5.20;;;1.92;;
46284;SDS011;32018;59.182;18.148;2023-09-30T10:11:18;8.90;;;1.98;;
46284;SDS011;32018;59.182;18.148;2023-09-30T10:13:56;6.63;;;2.42;;
46284;SDS011;32018;59.182;18.148;2023-09-30T10:19:09;5.32;;;1.80;;
46284;SDS011;32018;59.182;18.148;2023-09-30T10:21:35;5.35;;;1.70;;
46284;SDS011;32018;59.182;18.148;2023-09-30T10:26:44;5.97;;;2.15;;
46284;SDS011;32018;59.182;18.148;2023-09-30T10:29:09;3.97;;;1.73;;
46284;SDS011;32018;59.182;18.148;2023-09-30T10:31:35;3.97;;;1.45;;
46284;SDS011;32018;59.182;18.148;2023-09-30T10:34:17;7.38;;;1.92;;
46284;SDS011;32018;59.182;18.148;2023-09-30T10:36:44;3.83;;;1.48;;
46284;SDS011;32018;59.182;18.148;2023-09-30T10:39:11;6.28;;;1.77;;
46284;SDS011;32018;59.182;18.148;2023-09-30T10:47:00;5.65;;;1.90;;
46284;SDS011;32018;59.182;18.148;2023-09-30T10:49:42;2.80;;;1.20;;
46284;SDS011;32018;59.182;18.148;2023-09-30T10:52:07;5.50;;;1.52;;
46284;SDS011;32018;59.182;18.148;2023-09-30T10:54:32;3.47;;;1.23;;
46284;SDS011;32018;59.182;18.148;2023-09-30T10:56:58;3.83;;;1.27;;
46284;SDS011;32018;59.182;18.148;2023-09-30T10:59:27;3.15;;;1.05;;
46284;SDS011;32018;59.182;18.148;2023-09-30T11:01:55;3.28;;;1.15;;
46284;SDS011;32018;59.182;18.148;2023-09-30T11:04:22;4.13;;;1.60;;
46284;SDS011;32018;59.182;18.148;2023-09-30T11:06:50;3.23;;;1.20;;
46284;SDS011;32018;59.182;18.148;2023-09-30T11:09:16;4.30;;;1.35;;
46284;SDS011;32018;59.182;18.148;2023-09-30T11:11:43;2.75;;;1.02;;
46284;SDS011;32018;59.182;18.148;2023-09-30T11:14:27;4.80;;;1.65;;
46284;SDS011;32018;59.182;18.148;2023-09-30T11:16:54;9.85;;;1.10;;
46284;SDS011;32018;59.182;18.148;2023-09-30T11:19:20;4.78;;;1.35;;
46284;SDS011;32018;59.182;18.148;2023-09-30T11:21:46;4.70;;;1.75;;
46284;SDS011;32018;59.182;18.148;2023-09-30T11:24:13;3.60;;;1.15;;
46284;SDS011;32018;59.182;18.148;2023-09-30T11:26:38;3.45;;;1.20;;
46284;SDS011;32018;59.182;18.148;2023-09-30T11:29:06;2.95;;;1.30;;
46284;SDS011;32018;59.182;18.148;2023-09-30T11:31:32;4.50;;;1.45;;
46284;SDS011;32018;59.182;18.148;2023-09-30T11:33:59;2.45;;;0.82;;
46284;SDS011;32018;59.182;18.148;2023-09-30T11:36:28;3.65;;;1.23;;
46284;SDS011;32018;59.182;18.148;2023-09-30T11:38:54;3.58;;;1.15;;
46284;SDS011;32018;59.182;18.148;2023-09-30T11:41:19;2.72;;;1.10;;
46284;SDS011;32018;59.182;18.148;2023-09-30T11:43:57;3.72;;;0.98;;
46284;SDS011;32018;59.182;18.148;2023-09-30T11:46:24;2.90;;;1.10;;
46284;SDS011;32018;59.182;18.148;2023-09-30T11:48:59;5.72;;;1.00;;
46284;SDS011;32018;59.182;18.148;2023-09-30T11:51:25;3.85;;;1.10;;
46284;SDS011;32018;59.182;18.148;2023-09-30T11:53:51;4.97;;;1.27;;
46284;SDS011;32018;59.182;18.148;2023-09-30T11:56:18;2.35;;;0.80;;
46284;SDS011;32018;59.182;18.148;2023-09-30T11:58:43;2.67;;;1.10;;
46284;SDS011;32018;59.182;18.148;2023-09-30T12:01:09;2.20;;;0.70;;
46284;SDS011;32018;59.182;18.148;2023-09-30T12:03:38;4.13;;;1.02;;
46284;SDS011;32018;59.182;18.148;2023-09-30T12:06:05;2.65;;;1.00;;
46284;SDS011;32018;59.182;18.148;2023-09-30T12:08:30;2.00;;;0.70;;
46284;SDS011;32018;59.182;18.148;2023-09-30T12:10:55;1.90;;;0.80;;
46284;SDS011;32018;59.182;18.148;2023-09-30T12:13:21;2.78;;;0.90;;
46284;SDS011;32018;59.182;18.148;2023-09-30T12:15:46;3.70;;;1.13;;
46284;SDS011;32018;59.182;18.148;2023-09-30T12:18:11;3.23;;;0.80;;
46284;SDS011;32018;59.182;18.148;2023-09-30T12:20:39;2.38;;;0.85;;
46284;SDS011;32018;59.182;18.148;2023-09-30T12:23:06;3.28;;;1.10;;
46284;SDS011;32018;59.182;18.148;2023-09-30T12:25:31;4.10;;;1.30;;
46284;SDS011;32018;59.182;18.148;2023-09-30T12:27:56;5.88;;;1.05;;
46284;SDS011;32018;59.182;18.148;2023-09-30T12:30:22;4.53;;;1.00;;
46284;SDS011;32018;59.182;18.148;2023-09-30T12:32:47;2.57;;;0.80;;
46284;SDS011;32018;59.182;18.148;2023-09-30T12:35:12;3.47;;;1.30;;
46284;SDS011;32018;59.182;18.148;2023-09-30T12:37:37;2.77;;;0.90;;
46284;SDS011;32018;59.182;18.148;2023-09-30T12:40:04;2.78;;;1.10;;
46284;SDS011;32018;59.182;18.148;2023-09-30T12:42:31;2.22;;;0.88;;
46284;SDS011;32018;59.182;18.148;2023-09-30T12:44:57;1.98;;;0.73;;
46284;SDS011;32018;59.182;18.148;2023-09-30T12:47:22;4.07;;;1.00;;
46284;SDS011;32018;59.182;18.148;2023-09-30T12:49:47;4.40;;;1.15;;
46284;SDS011;32018;59.182;18.148;2023-09-30T12:52:12;3.77;;;1.37;;
46284;SDS011;32018;59.182;18.148;2023-09-30T12:54:38;3.60;;;0.80;;
46284;SDS011;32018;59.182;18.148;2023-09-30T12:57:04;1.83;;;0.55;;
46284;SDS011;32018;59.182;18.148;2023-09-30T12:59:32;2.05;;;0.60;;
46284;SDS011;32018;59.182;18.148;2023-09-30T13:01:59;2.78;;;1.00;;
46284;SDS011;32018;59.182;18.148;2023-09-30T13:04:24;1.83;;;0.67;;
46284;SDS011;32018;59.182;18.148;2023-09-30T13:06:50;2.67;;;0.80;;
46284;SDS011;32018;59.182;18.148;2023-09-30T13:09:15;2.72;;;1.25;;
46284;SDS011;32018;59.182;18.148;2023-09-30T13:11:41;3.53;;;0.93;;
46284;SDS011;32018;59.182;18.148;2023-09-30T13:14:06;2.40;;;0.77;;
46284;SDS011;32018;59.182;18.148;2023-09-30T13:16:32;2.03;;;0.93;;
46284;SDS011;32018;59.182;18.148;2023-09-30T13:18:57;1.38;;;0.68;;
46284;SDS011;32018;59.182;18.148;2023-09-30T13:21:22;3.67;;;0.90;;
46284;SDS011;32018;59.182;18.148;2023-09-30T13:23:47;5.13;;;0.67;;
46284;SDS011;32018;59.182;18.148;2023-09-30T13:26:12;2.33;;;0.60;;
46284;SDS011;32018;59.182;18.148;2023-09-30T13:28:38;2.70;;;0.70;;
46284;SDS011;32018;59.182;18.148;2023-09-30T13:31:04;4.50;;;0.82;;
46284;SDS011;32018;59.182;18.148;2023-09-30T13:33:29;3.90;;;0.70;;
46284;SDS011;32018;59.182;18.148;2023-09-30T13:35:55;2.47;;;0.88;;
46284;SDS011;32018;59.182;18.148;2023-09-30T13:38:20;1.50;;;0.60;;
46284;SDS011;32018;59.182;18.148;2023-09-30T13:40:46;2.58;;;0.73;;
46284;SDS011;32018;59.182;18.148;2023-09-30T13:43:11;2.58;;;0.80;;
46284;SDS011;32018;59.182;18.148;2023-09-30T13:45:36;2.35;;;1.00;;
46284;SDS011;32018;59.182;18.148;2023-09-30T13:48:02;1.77;;;0.77;;
46284;SDS011;32018;59.182;18.148;2023-09-30T13:50:27;2.42;;;0.80;;
46284;SDS011;32018;59.182;18.148;2023-09-30T13:52:52;2.07;;;0.60;;
46284;SDS011;32018;59.182;18.148;2023-09-30T13:55:17;2.35;;;0.57;;
46284;SDS011;32018;59.182;18.148;2023-09-30T13:57:46;2.60;;;0.77;;
46284;SDS011;32018;59.182;18.148;2023-09-30T14:00:12;2.72;;;0.60;;
46284;SDS011;32018;59.182;18.148;2023-09-30T14:02:38;10.30;;;1.50;;
46284;SDS011;32018;59.182;18.148;2023-09-30T14:05:04;3.00;;;0.70;;
46284;SDS011;32018;59.182;18.148;2023-09-30T14:07:29;1.42;;;0.65;;
46284;SDS011;32018;59.182;18.148;2023-09-30T14:09:54;2.20;;;0.80;;
46284;SDS011;32018;59.182;18.148;2023-09-30T14:12:20;2.27;;;1.10;;
46284;SDS011;32018;59.182;18.148;2023-09-30T14:14:45;2.00;;;0.70;;
46284;SDS011;32018;59.182;18.148;2023-09-30T14:17:10;3.97;;;0.80;;
46284;SDS011;32018;59.182;18.148;2023-09-30T14:19:36;1.35;;;0.52;;
46284;SDS011;32018;59.182;18.148;2023-09-30T14:22:02;3.00;;;0.60;;
46284;SDS011;32018;59.182;18.148;2023-09-30T14:24:29;1.77;;;0.55;;
46284;SDS011;32018;59.182;18.148;2023-09-30T14:26:54;1.60;;;0.52;;
46284;SDS011;32018;59.182;18.148;2023-09-30T14:29:20;2.28;;;0.80;;
46284;SDS011;32018;59.182;18.148;2023-09-30T14:31:45;1.07;;;0.53;;
46284;SDS011;32018;59.182;18.148;2023-09-30T14:34:11;2.20;;;0.80;;
46284;SDS011;32018;59.182;18.148;2023-09-30T14:36:37;3.63;;;0.82;;
46284;SDS011;32018;59.182;18.148;2023-09-30T14:39:02;2.40;;;0.52;;
46284;SDS011;32018;59.182;18.148;2023-09-30T14:41:29;1.40;;;0.65;;